Lone Pine, California
Current Conditions -  °F | °C
As of 6:56 AM on Sunday 21 Dec 2014 (Local Time) from KBIH Reporting Station
Clear Clear  
Wind Chill: 25°   Ceiling: Unl
Heat Index: 31°   Visibility: 10mi
Dew Point: 27°   Wind: 6mph
Humidity: 85%   Direction: 10°N
Pressure: 30.2"   Gusts: NA
Location:  36.61°N, 118.06°W
Report Text: KBIH 211456Z AUTO 01005KT 10SM CLR M01/M03 A3020 RMK AO2 SLP229 T10061028 55002
Loading
Personal Weather Stations






























Interactive Weather Map New forecast layout! Learn more

10-Day Weather Forecast

Advertisements
Track Severe Weather on mobile